Time;durP1;ratioP1;P1;durP2;ratioP2;P2;SDS_P1;SDS_P2;PMS_P1;PMS_P2;Temp;Humidity;BMP_temperature;BMP_pressure;BME280_temperature;BME280_humidity;BME280_pressure;Samples;Min_cycle;Max_cycle;Signal;HPM_P1;HPM_P2
2023/02/16 00:00:15;;;;;;;9.47;7.20;;;16.00;44.30;;;;;;5030930;28;20806;-65
2023/02/16 00:02:40;;;;;;;9.87;7.67;;;16.00;44.30;;;;;;5030764;28;20497;-64
2023/02/16 00:05:28;;;;;;;8.90;7.70;;;16.00;44.30;;;;;;5029666;28;20923;-65
2023/02/16 00:07:55;;;;;;;9.30;7.30;;;16.00;44.30;;;;;;5030895;28;20575;-66
2023/02/16 00:10:21;;;;;;;9.40;7.73;;;16.00;44.30;;;;;;5030965;28;20410;-65
2023/02/16 00:15:31;;;;;;;10.97;9.47;;;15.90;44.30;;;;;;5031430;28;20590;-66
2023/02/16 00:17:59;;;;;;;10.27;8.17;;;15.90;44.20;;;;;;5030807;28;20442;-66
2023/02/16 00:20:25;;;;;;;9.33;7.93;;;15.90;44.30;;;;;;5030869;28;20183;-66
2023/02/16 00:22:51;;;;;;;9.10;7.90;;;15.90;44.40;;;;;;5029944;28;20458;-65
2023/02/16 00:25:17;;;;;;;8.53;7.60;;;15.90;44.30;;;;;;5030531;28;20470;-65
2023/02/16 00:27:43;;;;;;;9.10;8.10;;;15.90;44.30;;;;;;5030608;28;20721;-67
2023/02/16 00:30:16;;;;;;;9.30;6.73;;;15.90;44.30;;;;;;5029407;28;20406;-66
2023/02/16 00:32:42;;;;;;;10.10;8.03;;;15.90;44.30;;;;;;5030933;28;20539;-66
2023/02/16 00:35:16;;;;;;;8.73;7.73;;;15.80;44.20;;;;;;5030592;28;20471;-66
2023/02/16 00:37:42;;;;;;;8.90;6.97;;;15.80;44.20;;;;;;5029147;28;20434;-66
2023/02/16 00:40:08;;;;;;;10.27;8.23;;;15.80;44.20;;;;;;5031159;28;20445;-64
2023/02/16 00:42:35;;;;;;;9.10;7.87;;;15.80;44.20;;;;;;5029279;28;20699;-65
2023/02/16 00:45:01;;;;;;;10.03;7.93;;;15.80;44.30;;;;;;5013229;28;20414;-66
2023/02/16 00:47:36;;;;;;;10.53;8.77;;;15.80;44.30;;;;;;5029115;28;20431;-66
2023/02/16 00:50:15;;;;;;;9.03;8.10;;;15.70;44.20;;;;;;5030604;28;20499;-67
2023/02/16 00:52:41;;;;;;;10.80;8.30;;;15.80;44.30;;;;;;5029423;28;20429;-66
2023/02/16 00:55:13;;;;;;;10.50;8.30;;;15.80;44.30;;;;;;5030737;28;20439;-71
2023/02/16 00:57:45;;;;;;;9.80;8.10;;;15.70;44.30;;;;;;5030696;28;20435;-71
2023/02/16 01:00:27;;;;;;;8.60;7.47;;;15.70;44.30;;;;;;5029530;28;20467;-72
2023/02/16 01:02:56;;;;;;;9.03;8.00;;;15.70;44.30;;;;;;5029050;28;20458;-72
2023/02/16 01:05:22;;;;;;;9.27;7.53;;;15.70;44.30;;;;;;5030604;28;20479;-70
2023/02/16 01:13:17;;;;;;;10.67;8.63;;;15.70;44.40;;;;;;5030856;28;20464;-72
2023/02/16 01:15:43;;;;;;;8.70;7.47;;;15.60;44.30;;;;;;5030511;28;20828;-72
2023/02/16 01:18:12;;;;;;;11.37;8.07;;;15.60;44.30;;;;;;5030379;28;20509;-72
2023/02/16 01:20:38;;;;;;;9.53;8.37;;;15.60;44.30;;;;;;5030134;28;20888;-70
2023/02/16 01:23:04;;;;;;;9.50;7.47;;;15.60;44.30;;;;;;5030002;28;20406;-72
2023/02/16 01:25:29;;;;;;;10.50;7.73;;;15.60;44.30;;;;;;5030345;28;20172;-71
2023/02/16 01:27:55;;;;;;;9.50;7.47;;;15.60;44.30;;;;;;5030021;28;20629;-70
2023/02/16 01:30:23;;;;;;;10.10;8.10;;;15.60;44.30;;;;;;5030550;28;20732;-72
2023/02/16 01:32:52;;;;;;;8.20;7.37;;;15.60;44.30;;;;;;5030099;28;20168;-71
2023/02/16 01:35:22;;;;;;;9.57;8.60;;;15.50;44.30;;;;;;5033601;28;20418;-72
2023/02/16 01:37:49;;;;;;;8.63;7.77;;;15.50;44.30;;;;;;5034296;28;20477;-72
2023/02/16 01:40:35;;;;;;;10.90;8.63;;;15.50;44.80;;;;;;5033665;28;20418;-72
2023/02/16 01:43:20;;;;;;;9.17;8.13;;;15.50;44.30;;;;;;5033477;28;20402;-70
2023/02/16 01:45:53;;;;;;;9.03;7.00;;;15.50;44.40;;;;;;5033472;28;20394;-72
2023/02/16 01:48:28;;;;;;;9.00;7.57;;;15.50;44.30;;;;;;5033283;28;20431;-70
2023/02/16 01:51:21;;;;;;;10.23;8.03;;;15.50;44.40;;;;;;5033312;28;20390;-71
2023/02/16 01:53:51;;;;;;;9.43;8.03;;;15.50;44.40;;;;;;5033165;28;20495;-71
2023/02/16 01:56:32;;;;;;;10.50;7.57;;;15.40;44.30;;;;;;5033107;28;20765;-71
2023/02/16 01:59:19;;;;;;;9.40;7.70;;;15.40;44.30;;;;;;5032944;28;20387;-70
2023/02/16 02:01:56;;;;;;;9.73;8.00;;;15.40;44.30;;;;;;5032647;28;20485;-71
2023/02/16 02:07:54;;;;;;;9.30;7.87;;;15.40;44.30;;;;;;5033085;28;20957;-72
2023/02/16 02:10:36;;;;;;;10.33;8.30;;;15.40;44.40;;;;;;5035349;28;20415;-71
2023/02/16 02:13:12;;;;;;;11.63;9.70;;;15.40;44.40;;;;;;5032943;28;20876;-72
2023/02/16 02:15:38;;;;;;;11.07;9.00;;;15.30;44.30;;;;;;5032916;28;20398;-72
2023/02/16 02:18:03;;;;;;;10.10;7.73;;;15.30;44.90;;;;;;5032521;28;20441;-72
2023/02/16 02:24:12;;;;;;;8.80;6.90;;;15.30;44.30;;;;;;5031876;28;20162;-72
2023/02/16 02:26:58;;;;;;;11.37;8.27;;;15.30;44.30;;;;;;5032432;28;20422;-71
2023/02/16 02:29:26;;;;;;;9.57;8.53;;;15.30;44.40;;;;;;5032607;28;20478;-72
2023/02/16 02:32:11;;;;;;;11.17;8.43;;;15.20;44.30;;;;;;5032465;28;20407;-72
2023/02/16 02:35:02;;;;;;;10.17;7.00;;;15.30;44.40;;;;;;5032386;28;20478;-72
2023/02/16 02:37:36;;;;;;;9.73;7.70;;;15.30;44.40;;;;;;5032534;28;20498;-72
2023/02/16 02:40:04;;;;;;;8.90;7.43;;;15.20;44.30;;;;;;5032542;28;20415;-72
2023/02/16 02:43:07;;;;;;;10.40;9.30;;;15.20;44.30;;;;;;5032434;28;20549;-70
2023/02/16 02:45:42;;;;;;;9.50;8.00;;;15.20;44.30;;;;;;5032155;28;20407;-71
2023/02/16 02:48:08;;;;;;;10.63;7.70;;;15.20;44.30;;;;;;5032128;28;20426;-72
2023/02/16 02:50:40;;;;;;;10.37;8.30;;;15.20;44.30;;;;;;5032448;28;20455;-71
2023/02/16 02:53:11;;;;;;;9.03;8.10;;;15.20;44.30;;;;;;5032208;28;20164;-71
2023/02/16 03:01:39;;;;;;;10.83;8.50;;;15.20;44.30;;;;;;5009973;28;20561;-72
2023/02/16 03:04:07;;;;;;;9.90;7.80;;;15.10;44.20;;;;;;5010374;28;20403;-72
2023/02/16 03:06:38;;;;;;;10.73;8.33;;;15.10;44.30;;;;;;5021155;28;20962;-70
2023/02/16 03:09:10;;;;;;;10.13;8.10;;;15.20;44.30;;;;;;5032404;28;20433;-72
2023/02/16 03:14:43;;;;;;;10.40;7.73;;;15.10;44.20;;;;;;5032298;28;20398;-72
2023/02/16 03:31:18;;;;;;;10.40;8.27;;;15.00;44.20;;;;;;5136741;27;20480;-64
2023/02/16 03:33:44;;;;;;;9.20;7.40;;;15.00;44.20;;;;;;5136102;27;20394;-64
2023/02/16 03:36:10;;;;;;;11.60;8.23;;;15.00;44.20;;;;;;5135984;27;20802;-64
2023/02/16 03:38:38;;;;;;;10.17;8.67;;;15.00;44.20;;;;;;5135737;27;20410;-64
2023/02/16 03:41:04;;;;;;;9.57;7.67;;;15.00;44.20;;;;;;5136187;27;20224;-64
2023/02/16 03:43:31;;;;;;;10.07;8.03;;;15.00;44.20;;;;;;5135805;27;20530;-64
2023/02/16 03:45:56;;;;;;;10.50;8.10;;;15.00;44.20;;;;;;5135603;27;20422;-64
2023/02/16 03:48:22;;;;;;;9.43;7.87;;;15.00;44.10;;;;;;5135745;27;20398;-64
2023/02/16 03:50:48;;;;;;;10.40;8.80;;;15.00;44.10;;;;;;5135918;27;20247;-64
2023/02/16 03:53:13;;;;;;;10.13;7.90;;;15.00;44.10;;;;;;5135599;27;20170;-64
2023/02/16 03:55:44;;;;;;;11.07;8.40;;;15.00;44.10;;;;;;5135277;27;20192;-64
2023/02/16 03:58:13;;;;;;;8.53;7.00;;;15.00;44.10;;;;;;5135519;27;20523;-64
2023/02/16 04:00:39;;;;;;;12.70;8.40;;;15.00;44.10;;;;;;5135817;27;20915;-64
2023/02/16 04:03:05;;;;;;;11.27;9.00;;;15.00;44.10;;;;;;5135509;27;20450;-65
2023/02/16 04:05:32;;;;;;;10.13;8.33;;;15.00;44.10;;;;;;5135399;27;20429;-64
2023/02/16 04:07:57;;;;;;;9.43;7.87;;;15.00;44.10;;;;;;5135250;27;20402;-64
2023/02/16 04:10:23;;;;;;;9.83;7.70;;;14.90;44.00;;;;;;5135293;27;20405;-64
2023/02/16 04:12:49;;;;;;;12.20;8.70;;;14.90;44.00;;;;;;5135081;27;20203;-64
2023/02/16 04:15:20;;;;;;;9.43;8.43;;;14.90;44.00;;;;;;5134897;27;20172;-64
2023/02/16 04:17:46;;;;;;;10.27;7.60;;;14.90;44.00;;;;;;5135160;27;20410;-64
2023/02/16 04:20:21;;;;;;;10.03;7.27;;;14.90;44.00;;;;;;5116579;27;20463;-64
2023/02/16 04:22:47;;;;;;;10.37;8.60;;;14.90;44.00;;;;;;5135025;27;20196;-64
2023/02/16 04:25:14;;;;;;;11.63;8.63;;;14.90;44.00;;;;;;5134982;27;20394;-64
2023/02/16 04:27:40;;;;;;;8.80;7.83;;;14.90;44.00;;;;;;5135450;27;20423;-64
2023/02/16 04:30:09;;;;;;;8.87;7.20;;;14.90;44.00;;;;;;5134807;27;20748;-64
2023/02/16 04:32:34;;;;;;;8.90;7.40;;;14.90;44.00;;;;;;5135332;27;20440;-63
2023/02/16 04:35:00;;;;;;;9.70;8.03;;;14.90;44.00;;;;;;5135117;27;20409;-65
2023/02/16 04:37:26;;;;;;;9.57;8.10;;;14.90;44.10;;;;;;5135570;27;20598;-63
2023/02/16 04:39:51;;;;;;;9.50;7.67;;;14.90;44.00;;;;;;5135367;27;20256;-65
2023/02/16 04:42:17;;;;;;;8.73;7.30;;;14.80;44.00;;;;;;5135544;27;20223;-65
2023/02/16 04:44:44;;;;;;;9.40;7.70;;;14.80;44.00;;;;;;5135415;27;20203;-65
2023/02/16 04:47:09;;;;;;;11.83;8.60;;;14.80;44.00;;;;;;5135288;27;20271;-65
2023/02/16 04:49:35;;;;;;;10.13;8.00;;;14.80;44.00;;;;;;5135048;27;20440;-65
2023/02/16 04:52:02;;;;;;;11.70;8.03;;;14.80;44.00;;;;;;5135351;27;20192;-65
2023/02/16 04:54:31;;;;;;;9.70;8.00;;;14.80;44.00;;;;;;5117500;28;20179;-65
2023/02/16 04:56:57;;;;;;;10.80;8.43;;;14.80;44.00;;;;;;5134538;28;20454;-67
2023/02/16 04:59:23;;;;;;;9.57;8.57;;;14.80;44.00;;;;;;5135202;28;20405;-67
2023/02/16 05:01:49;;;;;;;12.37;8.90;;;14.80;44.00;;;;;;5134816;28;20452;-67
2023/02/16 05:04:15;;;;;;;11.03;9.00;;;14.80;43.90;;;;;;5134897;28;20182;-67
2023/02/16 05:06:41;;;;;;;10.73;9.07;;;14.80;44.00;;;;;;5134572;28;20677;-67
2023/02/16 05:09:07;;;;;;;10.13;7.93;;;14.80;44.00;;;;;;5138517;27;20398;-67
2023/02/16 05:14:41;;;;;;;9.63;7.90;;;14.80;44.00;;;;;;5139360;27;20392;-67
2023/02/16 05:17:08;;;;;;;9.33;8.00;;;14.80;44.00;;;;;;5138650;27;20448;-67
2023/02/16 05:19:34;;;;;;;9.90;8.23;;;14.70;43.90;;;;;;5138582;27;20459;-67
2023/02/16 05:21:59;;;;;;;9.87;8.20;;;14.70;43.90;;;;;;5138899;27;20461;-67
2023/02/16 05:24:25;;;;;;;10.10;7.50;;;14.70;43.90;;;;;;5138775;27;20168;-67
2023/02/16 05:26:51;;;;;;;9.73;8.67;;;14.70;43.90;;;;;;5138525;27;20188;-67
2023/02/16 05:29:16;;;;;;;10.60;8.13;;;14.70;43.90;;;;;;5138597;27;20168;-68
2023/02/16 05:31:42;;;;;;;9.23;7.50;;;14.70;43.90;;;;;;5138398;27;20659;-66
2023/02/16 05:34:08;;;;;;;9.23;7.70;;;14.70;43.90;;;;;;5138843;27;20165;-65
2023/02/16 05:36:34;;;;;;;10.60;8.33;;;14.70;44.40;;;;;;5138046;27;20874;-65
2023/02/16 05:38:59;;;;;;;9.30;7.93;;;14.70;43.90;;;;;;5138344;27;20240;-65
2023/02/16 05:41:25;;;;;;;9.13;8.07;;;14.70;43.90;;;;;;5138134;27;20192;-65
2023/02/16 05:43:56;;;;;;;11.53;8.40;;;14.70;43.90;;;;;;5138235;27;20176;-65
2023/02/16 05:46:23;;;;;;;11.20;8.33;;;14.70;43.90;;;;;;5119460;27;20279;-64
2023/02/16 05:48:49;;;;;;;8.50;7.37;;;14.70;43.90;;;;;;5138223;27;20551;-65
2023/02/16 05:51:15;;;;;;;9.87;8.20;;;14.60;43.80;;;;;;5138044;27;20410;-65
2023/02/16 05:53:41;;;;;;;9.97;7.70;;;14.60;44.40;;;;;;5137868;27;20410;-65
2023/02/16 05:56:08;;;;;;;9.27;7.57;;;14.60;43.80;;;;;;5137858;27;20184;-65
2023/02/16 05:58:34;;;;;;;10.93;8.20;;;14.60;43.80;;;;;;5137767;27;20247;-65
2023/02/16 06:00:59;;;;;;;9.97;8.87;;;14.60;43.70;;;;;;5119599;27;20500;-65
2023/02/16 06:03:25;;;;;;;9.13;7.57;;;14.70;43.80;;;;;;5137747;27;20169;-65
2023/02/16 06:05:56;;;;;;;10.37;8.07;;;14.60;43.80;;;;;;5137490;27;20211;-65
2023/02/16 06:08:22;;;;;;;11.00;8.60;;;14.60;43.80;;;;;;5137693;27;20168;-65
2023/02/16 06:10:49;;;;;;;10.40;8.50;;;14.60;43.70;;;;;;5137781;27;20400;-65
2023/02/16 06:13:14;;;;;;;10.83;8.37;;;14.60;43.70;;;;;;5137680;27;20405;-65
2023/02/16 06:15:40;;;;;;;11.13;8.10;;;14.60;43.70;;;;;;5136785;27;20455;-65
2023/02/16 06:18:06;;;;;;;12.83;8.43;;;14.60;43.70;;;;;;5138242;27;20169;-65
2023/02/16 06:20:31;;;;;;;9.80;8.53;;;14.60;43.70;;;;;;5136792;27;20171;-65
2023/02/16 06:22:57;;;;;;;10.40;8.70;;;14.60;43.80;;;;;;5137398;27;20248;-65
2023/02/16 06:25:22;;;;;;;8.80;7.53;;;14.60;43.70;;;;;;5137347;27;20270;-65
2023/02/16 06:27:49;;;;;;;11.10;7.87;;;14.60;43.80;;;;;;5137232;27;20532;-65
2023/02/16 06:30:15;;;;;;;10.77;8.70;;;14.50;43.70;;;;;;5137274;27;20179;-65
2023/02/16 06:32:40;;;;;;;9.67;7.10;;;14.50;43.70;;;;;;5137034;27;20398;-65
2023/02/16 06:35:06;;;;;;;11.43;7.80;;;14.50;43.70;;;;;;5137170;27;20403;-65
2023/02/16 06:37:32;;;;;;;11.00;8.13;;;14.50;43.70;;;;;;5137382;27;20211;-65
2023/02/16 06:39:57;;;;;;;9.10;7.80;;;14.50;43.70;;;;;;5136841;27;20168;-65
2023/02/16 06:42:23;;;;;;;10.60;8.47;;;14.50;43.70;;;;;;5137086;27;20229;-65
2023/02/16 06:44:48;;;;;;;12.07;8.60;;;14.50;43.70;;;;;;5136827;27;20176;-65
2023/02/16 06:47:14;;;;;;;10.97;8.90;;;14.50;43.70;;;;;;5136619;27;20184;-65
2023/02/16 06:49:40;;;;;;;9.77;8.40;;;14.50;43.70;;;;;;5136915;27;20169;-65
2023/02/16 06:52:05;;;;;;;13.63;9.43;;;14.50;43.70;;;;;;5136719;27;20168;-65
2023/02/16 06:54:31;;;;;;;9.13;7.83;;;14.50;43.70;;;;;;5136761;27;20251;-65
2023/02/16 06:56:56;;;;;;;9.23;7.20;;;14.50;43.70;;;;;;5136622;27;20188;-65
2023/02/16 06:59:22;;;;;;;9.17;7.90;;;14.50;43.70;;;;;;5136682;27;20164;-66
2023/02/16 07:01:48;;;;;;;9.50;7.83;;;14.50;43.70;;;;;;5136871;27;20732;-66
2023/02/16 07:04:14;;;;;;;11.03;8.07;;;14.50;43.70;;;;;;5136459;27;20165;-66
2023/02/16 07:06:40;;;;;;;9.00;7.83;;;14.40;43.60;;;;;;5136565;27;20180;-66
2023/02/16 07:09:05;;;;;;;10.63;8.57;;;14.40;43.60;;;;;;5136858;27;20868;-65
2023/02/16 07:11:31;;;;;;;9.23;7.47;;;14.40;44.10;;;;;;5136475;27;20437;-66
2023/02/16 07:13:56;;;;;;;13.03;8.70;;;14.50;43.70;;;;;;5117962;27;20168;-66
2023/02/16 07:16:22;;;;;;;9.70;7.80;;;14.40;43.60;;;;;;5135984;27;20553;-66
2023/02/16 07:18:48;;;;;;;10.57;8.00;;;14.40;43.60;;;;;;5136429;27;20168;-65
2023/02/16 07:21:14;;;;;;;9.40;8.37;;;14.40;43.60;;;;;;5136942;27;20188;-65
2023/02/16 07:23:40;;;;;;;10.97;7.83;;;14.40;43.60;;;;;;5136462;27;20207;-65
2023/02/16 07:26:05;;;;;;;8.70;7.80;;;14.40;43.60;;;;;;5136340;27;20938;-66
2023/02/16 07:28:31;;;;;;;11.00;7.50;;;14.40;43.60;;;;;;5136480;27;20566;-67
2023/02/16 07:30:57;;;;;;;11.13;8.00;;;14.40;43.60;;;;;;5135030;27;20176;-68
2023/02/16 07:33:23;;;;;;;12.60;8.73;;;14.40;43.60;;;;;;5135989;27;20157;-67
2023/02/16 07:35:49;;;;;;;11.03;8.87;;;14.40;43.60;;;;;;5136280;27;20195;-67
2023/02/16 07:38:15;;;;;;;9.97;7.40;;;14.40;44.10;;;;;;5117872;27;20172;-65
2023/02/16 07:40:40;;;;;;;10.83;9.13;;;14.40;43.60;;;;;;5135862;27;20395;-65
2023/02/16 07:43:06;;;;;;;10.17;7.80;;;14.40;43.60;;;;;;5135804;27;20483;-65
2023/02/16 07:45:32;;;;;;;9.73;7.80;;;14.40;43.60;;;;;;5135857;27;20192;-65
2023/02/16 07:47:59;;;;;;;10.00;8.10;;;14.40;43.60;;;;;;5117251;27;20410;-65
2023/02/16 07:50:25;;;;;;;9.53;8.00;;;14.30;43.50;;;;;;5135685;27;20437;-65
2023/02/16 07:52:51;;;;;;;9.60;8.03;;;14.30;43.50;;;;;;5135656;27;20825;-65
2023/02/16 07:55:16;;;;;;;8.93;7.77;;;14.40;43.60;;;;;;5135937;27;20434;-65
2023/02/16 07:57:42;;;;;;;10.67;7.50;;;14.30;43.50;;;;;;5135670;27;20173;-66
2023/02/16 08:00:09;;;;;;;9.20;7.80;;;14.30;43.50;;;;;;5135764;27;20179;-66
2023/02/16 08:02:34;;;;;;;10.63;7.97;;;14.30;43.50;;;;;;5135442;27;20706;-66
2023/02/16 08:05:00;;;;;;;10.03;8.33;;;14.30;43.50;;;;;;5117116;27;20394;-65
2023/02/16 08:07:27;;;;;;;8.50;7.60;;;14.30;43.50;;;;;;5117203;27;20221;-67
2023/02/16 08:09:52;;;;;;;8.67;7.40;;;14.30;43.50;;;;;;5116852;27;20922;-67
2023/02/16 08:12:19;;;;;;;9.57;7.83;;;14.30;43.50;;;;;;5117063;27;20481;-69
2023/02/16 08:14:45;;;;;;;14.70;10.10;;;14.20;43.70;;;;;;5135074;27;20172;-69
2023/02/16 08:17:11;;;;;;;13.50;10.77;;;14.20;44.10;;;;;;5134834;27;20449;-69
2023/02/16 08:19:37;;;;;;;11.60;9.23;;;14.20;43.60;;;;;;5135716;27;20406;-69
2023/02/16 08:22:03;;;;;;;10.73;8.47;;;14.20;43.10;;;;;;5135525;27;20453;-67
2023/02/16 08:24:29;;;;;;;11.87;8.90;;;14.20;43.30;;;;;;5135260;27;20292;-64
2023/02/16 08:26:55;;;;;;;13.00;9.10;;;14.20;43.50;;;;;;5135618;27;20950;-69
2023/02/16 08:29:22;;;;;;;10.80;9.40;;;14.20;43.50;;;;;;5135367;27;20700;-69
2023/02/16 08:31:49;;;;;;;22.37;8.83;;;14.30;43.60;;;;;;5117516;27;20172;-70
2023/02/16 08:34:19;;;;;;;11.07;8.40;;;14.30;43.50;;;;;;5135723;27;20424;-70
2023/02/16 08:36:46;;;;;;;13.77;9.57;;;14.40;43.40;;;;;;5135337;27;20462;-70
2023/02/16 08:39:17;;;;;;;10.77;8.83;;;14.40;43.30;;;;;;5134927;27;20850;-64
2023/02/16 08:41:45;;;;;;;10.43;8.60;;;14.50;43.30;;;;;;5134497;27;20449;-67
2023/02/16 08:44:11;;;;;;;11.43;8.80;;;14.50;43.20;;;;;;5134740;27;20470;-67
2023/02/16 08:46:40;;;;;;;9.90;7.70;;;14.60;43.20;;;;;;5134963;27;20454;-67
2023/02/16 08:49:07;;;;;;;11.07;8.20;;;14.60;43.10;;;;;;5116577;27;20489;-67
2023/02/16 08:51:36;;;;;;;11.43;8.33;;;14.70;43.10;;;;;;5134786;27;20910;-67
2023/02/16 08:54:04;;;;;;;9.70;8.33;;;14.70;43.00;;;;;;5134864;27;20413;-67
2023/02/16 08:56:31;;;;;;;10.67;8.13;;;14.70;43.00;;;;;;5134816;28;20925;-65
2023/02/16 08:58:57;;;;;;;11.30;10.10;;;14.70;42.90;;;;;;5135380;28;20409;-68
2023/02/16 09:01:23;;;;;;;12.30;7.97;;;14.70;42.90;;;;;;5099755;28;20442;-64
2023/02/16 09:03:51;;;;;;;10.73;8.60;;;14.80;42.90;;;;;;5116636;28;20457;-64
2023/02/16 09:06:21;;;;;;;11.00;9.07;;;14.80;42.90;;;;;;5135062;28;20983;-64
2023/02/16 09:08:52;;;;;;;9.27;7.70;;;14.80;42.80;;;;;;5134914;28;20432;-67
2023/02/16 09:11:18;;;;;;;9.90;7.90;;;14.80;42.70;;;;;;5134584;28;20414;-69
2023/02/16 09:13:44;;;;;;;9.40;8.40;;;14.80;42.70;;;;;;5116755;28;20925;-69
2023/02/16 09:16:12;;;;;;;10.07;7.70;;;14.80;42.70;;;;;;5116119;28;20461;-70
2023/02/16 09:18:38;;;;;;;10.47;8.07;;;14.90;42.80;;;;;;5135038;28;20174;-68
2023/02/16 09:21:09;;;;;;;8.83;7.33;;;14.90;42.70;;;;;;5134316;28;20402;-67
2023/02/16 09:23:39;;;;;;;11.30;8.70;;;14.90;42.70;;;;;;5134539;28;20802;-64
2023/02/16 09:26:06;;;;;;;9.33;7.77;;;14.90;42.70;;;;;;5134691;28;20422;-64
2023/02/16 09:28:33;;;;;;;9.40;7.70;;;14.90;42.60;;;;;;5134656;28;20445;-69
2023/02/16 09:30:59;;;;;;;8.90;7.87;;;14.90;42.50;;;;;;5135012;28;20513;-69
2023/02/16 09:33:25;;;;;;;9.60;7.33;;;14.90;42.50;;;;;;5134903;28;20429;-65
2023/02/16 09:35:51;;;;;;;11.83;7.93;;;14.90;42.60;;;;;;5116161;28;20204;-67
2023/02/16 09:38:17;;;;;;;10.60;8.33;;;14.90;42.50;;;;;;5134587;28;20519;-68
2023/02/16 09:40:43;;;;;;;11.73;8.60;;;14.90;42.60;;;;;;5134986;28;20407;-65
2023/02/16 09:43:35;;;;;;;8.33;7.53;;;15.00;42.80;;;;;;5134283;28;20453;-64
2023/02/16 09:46:02;;;;;;;9.10;7.70;;;15.00;42.70;;;;;;5133956;28;20554;-65
2023/02/16 09:48:44;;;;;;;9.93;7.70;;;15.00;43.30;;;;;;5134306;28;20434;-64
2023/02/16 09:51:19;;;;;;;8.37;7.57;;;15.00;42.70;;;;;;5134581;28;20484;-67
2023/02/16 09:53:49;;;;;;;9.17;7.97;;;15.00;42.70;;;;;;5134606;27;20745;-67
2023/02/16 09:56:21;;;;;;;9.10;7.23;;;15.00;42.60;;;;;;5138186;27;20442;-70
2023/02/16 09:59:01;;;;;;;8.27;6.87;;;15.10;42.70;;;;;;5138248;27;20450;-64
2023/02/16 10:01:51;;;;;;;10.87;7.40;;;15.10;42.70;;;;;;5138974;27;20538;-69
2023/02/16 10:04:41;;;;;;;10.23;8.30;;;15.10;43.20;;;;;;5138533;27;20417;-64
2023/02/16 10:07:39;;;;;;;9.60;8.17;;;15.10;42.70;;;;;;5138191;27;20993;-69
2023/02/16 10:10:06;;;;;;;10.43;7.80;;;15.10;42.70;;;;;;5138336;27;20442;-69
2023/02/16 10:12:38;;;;;;;10.17;8.70;;;15.10;42.60;;;;;;5137885;27;20430;-67
2023/02/16 10:15:25;;;;;;;10.67;9.00;;;15.20;42.70;;;;;;5137465;27;20445;-65
2023/02/16 10:17:56;;;;;;;8.73;7.83;;;15.20;42.70;;;;;;5137451;27;20413;-65
2023/02/16 10:20:44;;;;;;;9.40;8.20;;;15.20;42.60;;;;;;5137709;27;20417;-63
2023/02/16 10:23:42;;;;;;;10.07;8.20;;;15.20;42.60;;;;;;5119756;27;20824;-64
2023/02/16 10:26:27;;;;;;;9.47;8.50;;;15.20;42.90;;;;;;5138242;27;20521;-64
2023/02/16 10:28:55;;;;;;;9.73;7.73;;;15.30;42.90;;;;;;5138155;27;20414;-64
2023/02/16 10:31:24;;;;;;;8.70;7.83;;;15.40;42.90;;;;;;5137669;27;20549;-64
2023/02/16 10:34:05;;;;;;;10.30;7.90;;;15.40;43.00;;;;;;5136995;27;20498;-64
2023/02/16 10:36:52;;;;;;;9.07;6.63;;;15.50;43.10;;;;;;5137604;27;20429;-70
2023/02/16 10:39:25;;;;;;;8.27;7.40;;;15.50;43.20;;;;;;5138319;27;20401;-64
2023/02/16 10:42:13;;;;;;;8.83;8.00;;;15.60;43.20;;;;;;5138030;27;20486;-64
2023/02/16 10:44:53;;;;;;;10.33;7.80;;;15.60;43.20;;;;;;5138252;27;20501;-70
2023/02/16 10:47:38;;;;;;;9.53;7.17;;;15.60;43.20;;;;;;5137129;27;20418;-65
2023/02/16 10:50:06;;;;;;;9.37;7.83;;;15.70;43.20;;;;;;5137244;27;20432;-65
2023/02/16 10:52:38;;;;;;;8.40;7.13;;;15.80;43.20;;;;;;5137111;27;20489;-65
2023/02/16 10:55:04;;;;;;;7.77;6.97;;;15.80;43.20;;;;;;5136974;27;20402;-65
2023/02/16 10:57:31;;;;;;;8.27;7.30;;;15.80;43.20;;;;;;5136997;27;20543;-65
2023/02/16 11:00:11;;;;;;;9.73;7.73;;;15.80;43.10;;;;;;5137522;27;20428;-69
2023/02/16 11:02:51;;;;;;;9.33;7.13;;;15.90;43.20;;;;;;5137122;27;20811;-69
2023/02/16 11:06:24;;;;;;;7.83;6.80;;;15.90;43.20;;;;;;5136843;27;20398;-68
2023/02/16 11:08:28;;;;;;;8.47;6.90;;;15.90;43.20;;;;;;5118807;27;20414;-68
2023/02/16 11:10:54;;;;;;;8.07;7.27;;;15.90;43.20;;;;;;5136841;27;20410;-67
2023/02/16 11:13:32;;;;;;;8.73;7.50;;;15.90;43.50;;;;;;5136934;27;20461;-67
2023/02/16 11:16:18;;;;;;;8.53;7.63;;;16.00;43.60;;;;;;5136426;27;20456;-67
2023/02/16 11:18:48;;;;;;;8.37;7.17;;;16.00;43.60;;;;;;5137237;27;20776;-68
2023/02/16 11:21:15;;;;;;;8.07;7.20;;;16.00;43.60;;;;;;5118356;27;20425;-65
2023/02/16 11:23:42;;;;;;;9.43;7.20;;;16.00;43.50;;;;;;5137244;27;20417;-64
2023/02/16 11:26:11;;;;;;;9.17;6.90;;;16.00;43.50;;;;;;5136226;27;20433;-69
2023/02/16 11:28:39;;;;;;;9.83;7.40;;;16.10;43.50;;;;;;5136484;27;20402;-64
2023/02/16 11:31:20;;;;;;;11.93;7.60;;;16.10;43.50;;;;;;5136730;27;20497;-67
2023/02/16 11:34:00;;;;;;;8.80;7.80;;;16.10;43.50;;;;;;5136885;27;20390;-68
2023/02/16 11:36:43;;;;;;;8.70;7.80;;;16.10;43.50;;;;;;5136451;27;20479;-67
2023/02/16 11:39:20;;;;;;;9.40;7.53;;;16.10;43.50;;;;;;5136267;27;20393;-65
2023/02/16 11:42:13;;;;;;;7.90;6.53;;;16.10;43.50;;;;;;5135669;27;20449;-64
2023/02/16 11:44:45;;;;;;;8.83;6.93;;;16.20;43.50;;;;;;5134913;27;20441;-64
2023/02/16 11:47:30;;;;;;;8.10;7.07;;;16.20;44.10;;;;;;5135640;27;20495;-64
2023/02/16 11:50:31;;;;;;;8.27;7.10;;;16.20;43.50;;;;;;5135595;27;20398;-64
2023/02/16 11:53:10;;;;;;;11.47;7.40;;;16.20;43.50;;;;;;5117945;27;20409;-69
2023/02/16 11:55:39;;;;;;;8.60;7.70;;;16.30;43.60;;;;;;5136445;27;20452;-69
2023/02/16 11:58:16;;;;;;;8.70;6.90;;;16.30;43.60;;;;;;5136307;27;20436;-65
2023/02/16 12:01:07;;;;;;;8.47;6.87;;;16.30;43.60;;;;;;5135200;27;20891;-65
2023/02/16 12:03:51;;;;;;;8.30;7.40;;;16.40;43.60;;;;;;5135461;27;20425;-67
2023/02/16 12:06:58;;;;;;;8.97;7.70;;;16.40;43.60;;;;;;5136571;27;20929;-67
2023/02/16 12:09:43;;;;;;;7.77;6.77;;;16.40;43.60;;;;;;5135777;27;20398;-67
2023/02/16 12:12:15;;;;;;;8.43;7.23;;;16.40;43.60;;;;;;5117730;27;20467;-67
2023/02/16 12:15:03;;;;;;;9.23;7.73;;;16.40;43.70;;;;;;5135442;27;21006;-65
2023/02/16 12:17:43;;;;;;;7.43;6.70;;;16.50;43.70;;;;;;5134428;27;20418;-64
2023/02/16 12:20:40;;;;;;;8.27;7.47;;;16.50;43.80;;;;;;5135434;27;20868;-64
2023/02/16 12:23:28;;;;;;;8.17;7.37;;;16.60;43.80;;;;;;5135072;27;20449;-65
2023/02/16 12:26:02;;;;;;;8.20;7.03;;;16.60;43.80;;;;;;5134890;27;20406;-65
2023/02/16 12:28:39;;;;;;;8.10;6.40;;;16.60;43.90;;;;;;5134866;27;20390;-66
2023/02/16 12:31:24;;;;;;;7.90;6.87;;;16.60;43.80;;;;;;5117741;27;20402;-67
2023/02/16 12:33:58;;;;;;;8.93;8.13;;;16.70;43.80;;;;;;5117269;27;20489;-65
2023/02/16 12:36:48;;;;;;;7.63;6.33;;;16.70;43.80;;;;;;5135620;27;20825;-69
2023/02/16 12:39:49;;;;;;;7.77;6.60;;;16.80;43.80;;;;;;5116454;27;20398;-65
2023/02/16 12:42:38;;;;;;;7.03;6.30;;;16.80;43.80;;;;;;5101886;27;20458;-64
2023/02/16 12:45:11;;;;;;;8.07;7.27;;;16.90;43.80;;;;;;5134510;27;20777;-64
2023/02/16 12:47:43;;;;;;;6.80;6.10;;;16.90;43.70;;;;;;5116197;28;20915;-65
2023/02/16 12:50:26;;;;;;;7.50;6.70;;;16.90;43.70;;;;;;5134529;27;20406;-64
2023/02/16 12:53:01;;;;;;;7.67;6.53;;;17.00;43.70;;;;;;5134517;27;20410;-64
2023/02/16 12:55:30;;;;;;;7.87;6.80;;;17.10;43.70;;;;;;5134452;27;20456;-64
2023/02/16 12:57:59;;;;;;;8.27;6.57;;;17.10;43.60;;;;;;5134636;27;20414;-64
2023/02/16 13:00:45;;;;;;;7.93;6.63;;;17.20;43.60;;;;;;5134611;28;20402;-65
2023/02/16 13:03:24;;;;;;;8.00;7.20;;;17.20;43.50;;;;;;5134841;28;20441;-64
2023/02/16 13:06:21;;;;;;;7.37;6.47;;;17.20;43.40;;;;;;5116684;28;20950;-63
2023/02/16 13:09:15;;;;;;;6.90;6.20;;;17.30;43.50;;;;;;5135240;28;20949;-64
2023/02/16 13:12:00;;;;;;;7.67;6.90;;;17.30;43.40;;;;;;5135067;28;20406;-64
2023/02/16 13:14:40;;;;;;;8.30;7.30;;;17.30;43.40;;;;;;5134554;28;20402;-66
2023/02/16 13:17:20;;;;;;;7.23;6.33;;;17.30;43.40;;;;;;5134296;28;20456;-66
2023/02/16 13:19:46;;;;;;;7.80;6.27;;;17.30;43.70;;;;;;5134785;28;20489;-65
2023/02/16 13:22:26;;;;;;;6.93;6.20;;;17.40;44.10;;;;;;5134398;28;20532;-64
2023/02/16 13:25:18;;;;;;;6.93;5.90;;;17.40;44.40;;;;;;5135601;28;20165;-69
2023/02/16 13:28:23;;;;;;;9.63;6.60;;;17.40;44.20;;;;;;5123374;28;20459;-67
2023/02/16 13:30:58;;;;;;;6.53;5.70;;;17.40;44.20;;;;;;5114855;22;20489;-67
2023/02/16 13:33:54;;;;;;;6.70;6.00;;;17.40;44.10;;;;;;5033314;28;20410;-68
2023/02/16 13:36:48;;;;;;;6.60;5.50;;;17.50;44.10;;;;;;5033549;28;20417;-67
2023/02/16 13:39:28;;;;;;;6.80;6.10;;;17.50;44.10;;;;;;5033335;28;20460;-67
2023/02/16 13:42:21;;;;;;;7.07;6.37;;;17.50;44.00;;;;;;5033079;28;20445;-67
2023/02/16 13:45:01;;;;;;;10.13;5.97;;;17.60;44.10;;;;;;5033473;28;20414;-67
2023/02/16 13:47:36;;;;;;;8.43;6.87;;;17.60;44.10;;;;;;5033410;28;20549;-67